createdAt,value
2023-02-09T00:04:14.630Z,-3.30
2023-02-09T00:09:21.736Z,-3.50
2023-02-09T00:14:29.842Z,-3.60
2023-02-09T00:19:37.250Z,-3.80
2023-02-09T00:24:44.343Z,-4.00
2023-02-09T00:29:50.991Z,-4.00
2023-02-09T00:34:58.260Z,-4.20
2023-02-09T00:40:05.335Z,-4.20
2023-02-09T00:45:12.511Z,-4.30
2023-02-09T00:50:19.635Z,-4.40
2023-02-09T00:55:26.742Z,-4.30
2023-02-09T01:00:33.559Z,-4.40
2023-02-09T01:05:45.336Z,-4.50
2023-02-09T01:10:52.333Z,-4.50
2023-02-09T01:15:59.520Z,-4.40
2023-02-09T01:21:11.660Z,-4.20
2023-02-09T01:26:20.247Z,-4.30
2023-02-09T01:31:36.433Z,-4.40
2023-02-09T01:36:43.497Z,-4.50
2023-02-09T01:41:50.366Z,-4.70
2023-02-09T01:46:57.297Z,-4.70
2023-02-09T01:52:26.388Z,-4.70
2023-02-09T01:57:37.840Z,-4.80
2023-02-09T02:02:48.821Z,-4.80
2023-02-09T02:08:17.767Z,-4.90
2023-02-09T02:13:24.562Z,-4.90
2023-02-09T02:19:05.579Z,-5.10
2023-02-09T02:24:54.262Z,-4.90
2023-02-09T02:30:24.466Z,-5.30
2023-02-09T02:35:44.320Z,-5.20
2023-02-09T02:40:58.067Z,-5.20
2023-02-09T02:46:24.133Z,-5.10
2023-02-09T02:51:40.776Z,-5.20
2023-02-09T02:56:57.487Z,-5.40
2023-02-09T03:02:23.382Z,-5.40
2023-02-09T03:07:30.169Z,-5.40
2023-02-09T03:12:59.272Z,-5.40
2023-02-09T03:18:37.158Z,-5.50
2023-02-09T03:24:00.111Z,-5.50
2023-02-09T03:29:08.445Z,-5.60
2023-02-09T03:34:16.621Z,-5.70
2023-02-09T03:39:23.520Z,-5.80
2023-02-09T03:44:30.258Z,-5.80
2023-02-09T03:49:41.115Z,-5.70
2023-02-09T03:54:48.101Z,-5.70
2023-02-09T03:59:55.050Z,-5.70
2023-02-09T04:05:03.274Z,-5.80
2023-02-09T04:10:10.911Z,-5.80
2023-02-09T04:15:18.236Z,-5.90
2023-02-09T04:20:25.270Z,-5.80
2023-02-09T04:25:32.315Z,-6.00
2023-02-09T04:30:39.181Z,-6.10
2023-02-09T04:35:46.139Z,-5.90
2023-02-09T04:40:56.659Z,-6.00
2023-02-09T04:46:04.050Z,-5.90
2023-02-09T04:51:11.028Z,-5.90
2023-02-09T04:56:18.751Z,-5.90
2023-02-09T05:01:26.989Z,-6.00
2023-02-09T05:06:34.082Z,-6.20
2023-02-09T05:11:41.137Z,-6.10
2023-02-09T05:16:48.295Z,-6.10
2023-02-09T05:21:55.248Z,-5.90
2023-02-09T05:27:02.240Z,-5.70
2023-02-09T05:32:09.371Z,-6.00
2023-02-09T05:37:16.632Z,-6.10
2023-02-09T05:42:24.358Z,-6.30
2023-02-09T05:47:31.372Z,-6.30
2023-02-09T05:52:38.239Z,-6.00
2023-02-09T05:57:45.269Z,-6.00
2023-02-09T06:02:52.560Z,-6.40
2023-02-09T06:07:59.422Z,-6.30
2023-02-09T06:13:06.859Z,-6.20
2023-02-09T06:18:13.539Z,-6.30
2023-02-09T06:23:20.422Z,-6.20
2023-02-09T06:28:27.646Z,-6.60
2023-02-09T06:33:36.476Z,-6.40
2023-02-09T06:38:44.318Z,-6.40
2023-02-09T06:43:51.315Z,-6.10
2023-02-09T06:48:59.598Z,-6.20
2023-02-09T06:54:07.068Z,-6.20
2023-02-09T06:59:16.010Z,-6.00
2023-02-09T07:04:22.741Z,-6.00
2023-02-09T07:09:29.440Z,-5.80
2023-02-09T07:14:36.375Z,-6.10
2023-02-09T07:19:43.083Z,-6.00
2023-02-09T07:24:50.197Z,-5.80
2023-02-09T07:29:58.788Z,-5.90
2023-02-09T07:35:06.377Z,-5.80
2023-02-09T07:40:13.644Z,-5.90
2023-02-09T07:45:24.508Z,-6.00
2023-02-09T07:50:29.084Z,-5.90
2023-02-09T07:55:35.820Z,-5.80
2023-02-09T08:00:42.649Z,-5.70
2023-02-09T08:06:28.010Z,-5.60
2023-02-09T08:11:45.346Z,-5.40
2023-02-09T08:16:56.820Z,-5.40
2023-02-09T08:22:04.306Z,-5.30
2023-02-09T08:27:12.139Z,-5.20
2023-02-09T08:32:19.243Z,-5.10
2023-02-09T08:37:26.322Z,-5.00
2023-02-09T08:42:33.061Z,-4.80
2023-02-09T08:47:40.116Z,-4.70
2023-02-09T08:52:47.399Z,-4.60
2023-02-09T08:57:54.173Z,-4.60
2023-02-09T09:03:01.198Z,-4.50
2023-02-09T09:08:11.910Z,-4.40
2023-02-09T09:13:19.839Z,-4.30
2023-02-09T09:18:28.004Z,-4.10
2023-02-09T09:23:34.950Z,-4.10
2023-02-09T09:28:41.778Z,-4.00
2023-02-09T09:33:48.920Z,-3.80
2023-02-09T09:38:56.655Z,-3.60
2023-02-09T09:44:07.358Z,-3.70
2023-02-09T09:49:27.075Z,-3.60
2023-02-09T09:54:37.515Z,-3.60
2023-02-09T09:59:45.665Z,-3.40
2023-02-09T10:04:53.204Z,-3.30
2023-02-09T10:10:07.078Z,-3.30
2023-02-09T10:15:34.996Z,-2.90
2023-02-09T10:20:52.146Z,-2.90
2023-02-09T10:26:12.799Z,-2.90
2023-02-09T10:31:27.224Z,-2.70
2023-02-09T10:36:56.728Z,-2.60
2023-02-09T10:42:25.654Z,-2.60
2023-02-09T10:47:34.060Z,-2.60
2023-02-09T10:52:48.074Z,-2.40
2023-02-09T10:58:12.757Z,-2.20
2023-02-09T11:03:28.110Z,-2.30
2023-02-09T11:08:54.075Z,-2.10
2023-02-09T11:14:01.536Z,-2.20
2023-02-09T11:19:45.286Z,-1.70
2023-02-09T11:25:29.286Z,-1.70
2023-02-09T11:30:57.058Z,-1.20
2023-02-09T11:36:27.417Z,-1.60
2023-02-09T11:41:52.270Z,-1.10
2023-02-09T11:47:08.555Z,-1.20
2023-02-09T11:52:25.293Z,-1.00
2023-02-09T11:57:39.281Z,-0.80
2023-02-09T12:03:00.995Z,-0.90
2023-02-09T12:08:28.745Z,-1.00
2023-02-09T12:14:17.492Z,-0.90
2023-02-09T12:19:37.010Z,-0.90
2023-02-09T12:24:45.455Z,-1.00
2023-02-09T12:29:52.155Z,-1.00
2023-02-09T12:35:00.950Z,-1.00
2023-02-09T12:40:16.783Z,-0.60
2023-02-09T12:45:41.991Z,-0.60
2023-02-09T12:50:55.545Z,-0.80
2023-02-09T12:56:12.949Z,-0.50
2023-02-09T13:01:21.002Z,-0.60
2023-02-09T13:06:34.911Z,-0.60
2023-02-09T13:11:55.111Z,-0.70
2023-02-09T13:17:09.680Z,-0.50
2023-02-09T13:22:43.377Z,-0.50
2023-02-09T13:27:52.071Z,-0.60
2023-02-09T13:33:42.156Z,-0.50
2023-02-09T13:38:49.560Z,-0.50
2023-02-09T13:43:56.304Z,-0.50
2023-02-09T13:49:15.917Z,-0.40
2023-02-09T13:54:23.422Z,-0.40
2023-02-09T13:59:31.486Z,-0.60
2023-02-09T14:04:40.023Z,-0.60
2023-02-09T14:09:55.234Z,-0.70
2023-02-09T14:15:19.772Z,-0.60
2023-02-09T14:20:27.401Z,-0.70
2023-02-09T14:25:34.550Z,-0.70
2023-02-09T14:30:45.414Z,-0.70
2023-02-09T14:35:59.514Z,-0.70
2023-02-09T14:41:32.820Z,-0.80
2023-02-09T14:46:55.646Z,-0.90
2023-02-09T14:52:10.751Z,-0.80
2023-02-09T14:57:17.844Z,-0.90
2023-02-09T15:02:27.907Z,-0.90
2023-02-09T15:07:38.507Z,-0.90
2023-02-09T15:12:45.992Z,-1.00
2023-02-09T15:17:55.532Z,-0.90
2023-02-09T15:23:02.560Z,-1.00
2023-02-09T15:28:32.589Z,-1.00
2023-02-09T15:33:39.612Z,-1.10
2023-02-09T15:38:46.618Z,-1.10
2023-02-09T15:44:10.920Z,-1.00
2023-02-09T15:49:17.968Z,-1.10
2023-02-09T15:54:29.457Z,-1.30
2023-02-09T15:59:36.156Z,-1.30
2023-02-09T16:04:46.431Z,-1.40
2023-02-09T16:09:54.286Z,-1.70
2023-02-09T16:15:01.328Z,-1.70
2023-02-09T16:20:08.690Z,-1.90
2023-02-09T16:25:25.904Z,-1.90
2023-02-09T16:30:35.820Z,-2.00
2023-02-09T16:35:44.664Z,-2.10
2023-02-09T16:40:52.991Z,-2.40
2023-02-09T16:46:03.581Z,-2.40
2023-02-09T16:51:10.551Z,-2.40
2023-02-09T16:56:17.862Z,-2.50
2023-02-09T17:01:25.734Z,-2.50
2023-02-09T17:06:33.445Z,-2.50
2023-02-09T17:11:40.218Z,-2.60
2023-02-09T17:16:50.324Z,-2.70
2023-02-09T17:21:58.775Z,-2.70
2023-02-09T17:27:05.844Z,-2.70
2023-02-09T17:32:16.016Z,-2.70
2023-02-09T17:37:22.952Z,-2.70
2023-02-09T17:42:31.609Z,-2.80
2023-02-09T17:47:39.905Z,-2.90
2023-02-09T17:52:47.061Z,-2.80
2023-02-09T17:57:58.802Z,-2.90
2023-02-09T18:03:06.231Z,-2.90
2023-02-09T18:08:13.771Z,-3.10
2023-02-09T18:13:24.165Z,-3.10
2023-02-09T18:18:30.890Z,-3.10
2023-02-09T18:23:37.647Z,-3.20
2023-02-09T18:28:44.301Z,-3.20
2023-02-09T18:33:51.397Z,-3.30
2023-02-09T18:38:58.606Z,-3.20
2023-02-09T18:44:05.546Z,-3.10
2023-02-09T18:49:14.265Z,-3.20
2023-02-09T18:54:21.311Z,-3.40
2023-02-09T18:59:33.407Z,-3.50
2023-02-09T19:04:40.939Z,-3.40
2023-02-09T19:09:47.758Z,-3.50
2023-02-09T19:14:55.297Z,-3.60
2023-02-09T19:20:05.102Z,-3.70
2023-02-09T19:25:11.968Z,-3.60
2023-02-09T19:30:28.954Z,-3.70
2023-02-09T19:35:35.860Z,-3.70
2023-02-09T19:40:43.877Z,-3.50
2023-02-09T19:45:59.274Z,-3.80
2023-02-09T19:51:07.156Z,-4.00
2023-02-09T19:56:23.211Z,-4.10
2023-02-09T20:01:31.655Z,-4.30
2023-02-09T20:06:39.202Z,-4.10
2023-02-09T20:11:46.269Z,-4.20
2023-02-09T20:16:55.584Z,-4.20
2023-02-09T20:22:02.332Z,-4.10
2023-02-09T20:27:09.321Z,-4.20
2023-02-09T20:32:16.327Z,-4.20
2023-02-09T20:37:23.287Z,-4.20
2023-02-09T20:42:47.898Z,-4.50
2023-02-09T20:47:54.568Z,-4.50
2023-02-09T20:53:03.540Z,-4.30
2023-02-09T20:58:12.148Z,-4.40
2023-02-09T21:03:19.401Z,-4.50
2023-02-09T21:08:27.497Z,-4.50
2023-02-09T21:13:37.622Z,-4.70
2023-02-09T21:18:46.182Z,-4.70
2023-02-09T21:23:53.374Z,-4.50
2023-02-09T21:29:01.140Z,-4.50
2023-02-09T21:34:07.980Z,-4.50
2023-02-09T21:39:14.957Z,-4.60
2023-02-09T21:44:21.894Z,-4.70
2023-02-09T21:49:30.320Z,-4.90
2023-02-09T21:54:37.119Z,-4.80
2023-02-09T21:59:44.333Z,-4.80
2023-02-09T22:04:52.543Z,-4.60
2023-02-09T22:09:59.386Z,-4.80
2023-02-09T22:15:06.563Z,-4.90
2023-02-09T22:20:15.265Z,-5.00
2023-02-09T22:25:23.121Z,-4.80
2023-02-09T22:30:30.602Z,-5.00
2023-02-09T22:35:40.966Z,-5.00
2023-02-09T22:40:47.965Z,-5.00
2023-02-09T22:45:59.145Z,-4.80
2023-02-09T22:51:06.959Z,-5.00
2023-02-09T22:56:15.258Z,-5.10
2023-02-09T23:01:22.285Z,-5.00
2023-02-09T23:06:31.005Z,-5.10
2023-02-09T23:11:38.580Z,-5.00
2023-02-09T23:16:47.756Z,-5.00
2023-02-09T23:21:54.919Z,-5.10
2023-02-09T23:27:02.087Z,-5.20
2023-02-09T23:32:08.939Z,-5.10
2023-02-09T23:37:28.644Z,-5.10
2023-02-09T23:42:26.099Z,-5.10
2023-02-09T23:47:32.958Z,-4.80
2023-02-09T23:52:39.844Z,-5.00
2023-02-09T23:57:46.642Z,-4.90
